Time;durP1;ratioP1;P1;durP2;ratioP2;P2;SDS_P1;SDS_P2;PMS_P1;PMS_P2;Temp;Humidity;BMP_temperature;BMP_pressure;BME280_temperature;BME280_humidity;BME280_pressure;Samples;Min_cycle;Max_cycle;Signal;HPM_P1;HPM_P2
2023/08/28 04:41:10;;;;;;;18.00;14.20;;;;;;;20.89;100.00;99554.48;110073;1249;24176;-51
2023/08/28 04:43:37;;;;;;;20.50;14.60;;;;;;;21.01;100.00;99553.12;110715;1249;22731;-51
2023/08/28 04:46:04;;;;;;;16.30;13.70;;;;;;;21.12;100.00;99548.23;110553;1248;25618;-50
2023/08/28 04:48:32;;;;;;;14.40;12.90;;;;;;;21.19;100.00;99543.77;110877;1249;22523;-51
2023/08/28 04:50:59;;;;;;;14.70;13.30;;;;;;;21.26;100.00;99539.84;112386;1249;22417;-50
2023/08/28 04:53:26;;;;;;;17.40;13.50;;;;;;;21.35;100.00;99539.20;111265;1248;23282;-49
2023/08/28 04:55:55;;;;;;;20.30;14.10;;;;;;;21.47;100.00;99539.95;110985;1249;22554;-50
2023/08/28 04:58:22;;;;;;;17.80;14.90;;;;;;;21.59;100.00;99536.62;110599;1249;25455;-45
2023/08/28 05:00:49;;;;;;;25.00;15.30;;;;;;;21.68;100.00;99538.52;111722;1248;22500;-48
2023/08/28 05:03:16;;;;;;;20.80;14.10;;;;;;;21.77;100.00;99539.27;113094;1249;22338;-51
2023/08/28 05:05:43;;;;;;;24.60;16.30;;;;;;;21.87;100.00;99535.83;113067;1249;22379;-46
2023/08/28 05:08:14;;;;;;;19.60;17.20;;;;;;;21.99;100.00;99535.52;112727;1249;22512;-51
2023/08/28 05:10:41;;;;;;;20.70;17.00;;;;;;;22.12;100.00;99532.80;110981;1249;22493;-47
2023/08/28 05:13:08;;;;;;;22.90;17.40;;;;;;;22.24;100.00;99533.86;111987;1249;22460;-51
2023/08/28 05:15:35;;;;;;;26.20;19.20;;;;;;;22.35;100.00;99527.53;113043;1248;22381;-51
2023/08/28 05:18:03;;;;;;;20.90;17.30;;;;;;;22.45;100.00;99529.73;113002;1249;22395;-52
2023/08/28 05:20:30;;;;;;;22.60;17.50;;;;;;;22.57;100.00;99528.14;112833;1249;22367;-52
2023/08/28 05:22:57;;;;;;;26.80;18.30;;;;;;;22.68;100.00;99531.50;112833;1248;22411;-47
2023/08/28 05:25:25;;;;;;;19.90;17.70;;;;;;;22.78;100.00;99528.80;112859;1249;22414;-47
2023/08/28 05:27:52;;;;;;;22.50;18.90;;;;;;;22.87;100.00;99530.20;111813;1248;24179;-51
2023/08/28 05:30:18;;;;;;;22.50;18.70;;;;;;;22.98;100.00;99532.54;111233;1249;25557;-55
2023/08/28 05:32:46;;;;;;;20.70;18.40;;;;;;;23.09;100.00;99533.58;112395;1249;24250;-50
2023/08/28 05:35:13;;;;;;;24.70;20.10;;;;;;;23.23;100.00;99533.45;112757;1249;22406;-51
2023/08/28 05:37:41;;;;;;;27.20;19.40;;;;;;;23.38;100.00;99530.34;112516;1249;22726;-46
2023/08/28 05:40:15;;;;;;;20.40;18.40;;;;;;;23.52;100.00;99527.63;112374;1249;22488;-45
2023/08/28 05:42:43;;;;;;;22.10;19.50;;;;;;;23.66;100.00;99526.41;112645;1249;25263;-50
2023/08/28 05:45:10;;;;;;;29.50;19.90;;;;;;;23.79;100.00;99522.63;112083;1249;22411;-47
2023/08/28 05:47:41;;;;;;;19.10;17.10;;;;;;;23.92;100.00;99519.46;112198;1249;22296;-51
2023/08/28 05:50:12;;;;;;;19.40;15.90;;;;;;;24.07;100.00;99515.95;112501;1249;22762;-46
2023/08/28 05:52:45;;;;;;;21.10;17.10;;;;;;;24.24;100.00;99515.00;111822;1249;25327;-46
2023/08/28 05:55:18;;;;;;;20.70;16.80;;;;;;;24.41;100.00;99511.52;112834;1249;22352;-46
2023/08/28 05:57:45;;;;;;;23.70;15.40;;;;;;;24.57;100.00;99504.89;112960;1249;22401;-46
2023/08/28 06:00:13;;;;;;;17.30;15.60;;;;;;;24.73;100.00;99501.46;112918;1249;22391;-47
2023/08/28 06:02:41;;;;;;;27.60;14.60;;;;;;;24.87;100.00;99496.14;112788;1249;23099;-51
2023/08/28 06:05:09;;;;;;;21.50;14.80;;;;;;;25.01;100.00;99491.75;112962;1249;22406;-51
2023/08/28 06:07:36;;;;;;;20.00;15.10;;;;;;;25.16;100.00;99490.46;112834;1249;23076;-51
2023/08/28 06:10:04;;;;;;;19.70;13.70;;;;;;;25.31;100.00;99493.54;112978;1249;23452;-52
2023/08/28 06:12:32;;;;;;;22.00;14.80;;;;;;;25.43;100.00;99485.12;112847;1249;22431;-52
2023/08/28 06:14:59;;;;;;;18.20;14.50;;;;;;;25.54;100.00;99486.98;113000;1249;22452;-46
2023/08/28 06:17:26;;;;;;;16.60;13.80;;;;;;;25.67;100.00;99488.66;112721;1249;23078;-47
2023/08/28 06:19:53;;;;;;;24.20;12.90;;;;;;;25.81;100.00;99492.46;112811;1249;23201;-51
2023/08/28 06:22:20;;;;;;;17.40;13.80;;;;;;;25.95;100.00;99494.84;112809;1249;22384;-52
2023/08/28 06:24:52;;;;;;;16.90;12.40;;;;;;;26.07;100.00;99492.86;112766;1249;22307;-47
2023/08/28 06:27:19;;;;;;;17.10;11.40;;;;;;;26.22;99.57;99495.04;112873;1249;23140;-47
2023/08/28 06:29:47;;;;;;;16.70;12.60;;;;;;;26.38;97.52;99496.85;112762;1249;22220;-46
2023/08/28 06:32:21;;;;;;;19.30;14.40;;;;;;;26.52;93.46;99497.70;112845;1249;22881;-46
2023/08/28 06:34:54;;;;;;;15.90;14.30;;;;;;;26.65;91.51;99498.87;112671;1249;22999;-45
2023/08/28 06:37:24;;;;;;;17.60;14.00;;;;;;;26.75;90.30;99496.44;112281;1249;22495;-45
2023/08/28 06:39:55;;;;;;;;;;;;;;;26.88;88.27;99498.45;112437;1249;22880;-45
2023/08/28 06:42:22;;;;;;;17.60;14.70;;;;;;;27.00;85.51;99496.45;113014;1249;22395;-45
2023/08/28 06:44:50;;;;;;;17.20;14.80;;;;;;;27.12;84.32;99487.80;112897;1249;22506;-46
2023/08/28 06:47:17;;;;;;;17.00;14.60;;;;;;;27.25;83.18;99488.16;112777;1249;22513;-50
2023/08/28 06:49:45;;;;;;;24.00;18.40;;;;;;;27.37;81.16;99488.09;113031;1249;22404;-51
2023/08/28 06:52:15;;;;;;;21.70;18.50;;;;;;;27.48;80.11;99488.77;112996;1249;22790;-46
2023/08/28 06:54:43;;;;;;;25.00;16.60;;;;;;;27.59;78.40;99485.50;111715;1249;22507;-46
2023/08/28 06:57:19;;;;;;;14.80;13.20;;;;;;;27.71;77.72;99485.80;111982;1249;23160;-46
2023/08/28 06:59:46;;;;;;;13.90;11.40;;;;;;;27.84;76.36;99483.29;111701;1249;22432;-46
2023/08/28 07:02:13;;;;;;;13.30;10.10;;;;;;;27.96;74.31;99484.59;111888;1249;25304;-50
2023/08/28 07:04:40;;;;;;;11.50;10.40;;;;;;;28.03;73.55;99487.34;112676;1249;22424;-51
2023/08/28 07:07:07;;;;;;;15.90;9.50;;;;;;;28.12;73.27;99485.76;111294;1249;23088;-52
2023/08/28 07:09:34;;;;;;;17.70;10.20;;;;;;;28.19;73.16;99482.29;112985;1249;22661;-51
2023/08/28 07:12:01;;;;;;;16.20;9.00;;;;;;;28.30;73.12;99477.91;112972;1249;22342;-46
2023/08/28 07:14:29;;;;;;;13.10;8.80;;;;;;;28.43;72.38;99472.30;112999;1249;22374;-46
2023/08/28 07:16:56;;;;;;;15.80;9.50;;;;;;;28.57;71.08;99474.30;112983;1249;23199;-46
2023/08/28 07:19:23;;;;;;;14.70;9.00;;;;;;;28.69;69.68;99469.71;112963;1248;22387;-46
2023/08/28 07:21:51;;;;;;;16.00;8.70;;;;;;;28.79;68.69;99467.73;112981;1249;22479;-46
2023/08/28 07:24:18;;;;;;;10.10;7.80;;;;;;;28.89;67.94;99465.41;112961;1249;22380;-47
2023/08/28 07:26:45;;;;;;;17.30;8.40;;;;;;;28.98;67.63;99467.89;112963;1249;23208;-46
2023/08/28 07:29:12;;;;;;;14.40;9.20;;;;;;;29.07;67.59;99469.73;113007;1249;22316;-52
2023/08/28 07:31:39;;;;;;;10.80;8.70;;;;;;;29.18;67.89;99468.39;112968;1249;22223;-52
2023/08/28 07:34:07;;;;;;;12.40;8.60;;;;;;;29.29;67.58;99468.44;112958;1249;22235;-51
2023/08/28 07:36:37;;;;;;;11.00;8.10;;;;;;;29.42;67.29;99465.14;112956;1249;22225;-47
2023/08/28 07:39:04;;;;;;;13.50;10.00;;;;;;;29.53;65.47;99465.94;113010;1249;22257;-52
2023/08/28 07:41:31;;;;;;;13.10;9.50;;;;;;;29.59;65.73;99465.90;112997;1249;22407;-52
2023/08/28 07:43:58;;;;;;;13.60;9.50;;;;;;;29.65;65.06;99461.95;112976;1249;22394;-46
2023/08/28 07:46:28;;;;;;;14.20;9.90;;;;;;;29.72;64.68;99459.16;112980;1249;22506;-52
2023/08/28 07:48:55;;;;;;;15.60;9.40;;;;;;;29.78;64.02;99456.77;112955;1249;22239;-47
2023/08/28 07:51:22;;;;;;;17.60;9.70;;;;;;;29.87;64.10;99455.96;112817;1249;204827;-52
2023/08/28 07:53:49;;;;;;;10.60;9.30;;;;;;;29.95;63.53;99444.94;112948;1249;23278;-48
2023/08/28 07:56:16;;;;;;;18.30;9.00;;;;;;;30.02;62.40;99440.50;112921;1249;22432;-46
2023/08/28 07:58:43;;;;;;;12.20;9.30;;;;;;;30.08;61.82;99440.46;112949;1249;22259;-52
2023/08/28 08:01:11;;;;;;;12.50;8.10;;;;;;;30.15;61.28;99436.61;112874;1249;23347;-52
2023/08/28 08:03:37;;;;;;;12.70;9.90;;;;;;;30.24;59.77;99436.54;112841;1248;22871;-51
2023/08/28 08:06:07;;;;;;;9.80;8.70;;;;;;;30.27;60.06;99434.79;112762;1249;22506;-46
2023/08/28 08:08:34;;;;;;;10.00;7.10;;;;;;;30.33;59.99;99433.71;112896;1249;23213;-47
2023/08/28 08:11:01;;;;;;;15.90;8.10;;;;;;;30.38;58.35;99430.96;112899;1249;22324;-46
2023/08/28 08:13:29;;;;;;;9.20;7.80;;;;;;;30.43;58.02;99427.04;111389;1249;23428;-46
2023/08/28 08:15:56;;;;;;;10.20;8.80;;;;;;;30.47;57.69;99430.63;112967;1249;22426;-46
2023/08/28 08:18:23;;;;;;;10.80;8.90;;;;;;;30.53;58.39;99431.15;112922;1249;22438;-47
2023/08/28 08:20:50;;;;;;;13.40;8.90;;;;;;;30.63;58.11;99433.64;112747;1249;22322;-47
2023/08/28 08:23:17;;;;;;;10.40;9.30;;;;;;;30.73;58.02;99434.52;112881;1249;22558;-52
2023/08/28 08:25:44;;;;;;;13.80;9.40;;;;;;;30.81;57.77;99437.81;112935;1249;22898;-46
2023/08/28 08:28:12;;;;;;;15.20;8.50;;;;;;;30.90;57.68;99436.78;112731;1249;22416;-52
2023/08/28 08:30:39;;;;;;;14.60;8.80;;;;;;;31.00;57.34;99438.85;112885;1249;22904;-52
2023/08/28 08:33:06;;;;;;;12.60;8.90;;;;;;;31.07;57.16;99436.17;112689;1249;22503;-48
2023/08/28 08:35:34;;;;;;;12.00;7.90;;;;;;;31.18;56.85;99438.14;112608;1249;22609;-51
2023/08/28 08:38:01;;;;;;;10.60;8.00;;;;;;;31.30;56.28;99430.36;112909;1248;22362;-46
2023/08/28 08:40:29;;;;;;;10.70;7.50;;;;;;;31.38;55.22;99433.11;112895;1249;22423;-51
2023/08/28 08:42:56;;;;;;;11.80;7.30;;;;;;;31.45;55.56;99430.56;112993;1249;22396;-46
2023/08/28 08:45:26;;;;;;;14.70;7.80;;;;;;;31.56;55.24;99424.77;112986;1244;22440;-51
2023/08/28 08:47:54;;;;;;;13.30;7.10;;;;;;;31.63;53.51;99418.31;112222;1249;22534;-52
2023/08/28 08:50:23;;;;;;;12.90;6.80;;;;;;;31.63;53.30;99416.45;112786;1248;22887;-52
2023/08/28 08:52:51;;;;;;;16.20;7.10;;;;;;;31.65;51.97;99412.68;112643;1249;23203;-48
2023/08/28 08:55:53;;;;;;;9.50;7.60;;;;;;;31.69;51.38;99413.91;112719;1249;22416;-51
2023/08/28 08:58:20;;;;;;;10.30;7.50;;;;;;;31.78;51.39;99410.30;112573;1249;23198;-51
2023/08/28 09:00:47;;;;;;;9.10;6.20;;;;;;;31.85;50.44;99408.02;112717;1249;22398;-45
2023/08/28 09:03:14;;;;;;;10.70;7.40;;;;;;;31.90;50.47;99405.11;111707;1249;24303;-52
2023/08/28 09:05:42;;;;;;;9.80;6.90;;;;;;;31.95;50.29;99403.33;112332;1249;22555;-47
2023/08/28 09:08:09;;;;;;;12.40;7.40;;;;;;;32.00;49.25;99403.92;112706;1249;23039;-52
2023/08/28 09:10:36;;;;;;;12.90;7.40;;;;;;;32.05;49.34;99401.23;112724;1249;22393;-51
2023/08/28 09:13:04;;;;;;;9.40;6.30;;;;;;;32.15;49.66;99396.79;112921;1249;23693;-51
2023/08/28 09:15:33;;;;;;;10.70;6.30;;;;;;;32.26;49.27;99391.62;112909;1249;22433;-47
2023/08/28 09:18:01;;;;;;;10.60;6.80;;;;;;;32.39;48.75;99392.83;112769;1249;22357;-53
2023/08/28 09:20:28;;;;;;;8.00;6.90;;;;;;;32.50;48.10;99387.90;112394;1248;22396;-47
2023/08/28 09:22:55;;;;;;;10.30;7.10;;;;;;;32.56;48.24;99385.80;112799;1248;22281;-46
2023/08/28 09:25:23;;;;;;;12.40;7.80;;;;;;;32.62;48.11;99386.23;112947;1249;22666;-47
2023/08/28 09:27:52;;;;;;;9.80;7.80;;;;;;;32.62;48.19;99382.85;112884;1249;22379;-48
2023/08/28 09:30:36;;;;;;;11.20;9.20;;;;;;;32.53;48.45;99381.94;112816;1249;22436;-47
2023/08/28 09:33:05;;;;;;;11.60;8.20;;;;;;;32.51;48.67;99385.73;112918;1249;22472;-47
2023/08/28 09:35:38;;;;;;;15.00;9.00;;;;;;;32.56;48.87;99383.40;112966;1249;23119;-46
2023/08/28 09:38:06;;;;;;;13.90;8.30;;;;;;;32.61;48.69;99383.46;112924;1249;22436;-47
2023/08/28 09:40:39;;;;;;;20.40;9.30;;;;;;;32.67;48.66;99380.10;112988;1248;22395;-47
2023/08/28 09:43:13;;;;;;;16.50;8.90;;;;;;;32.78;48.84;99379.25;112180;1249;23131;-47
2023/08/28 09:45:41;;;;;;;13.20;9.40;;;;;;;32.89;48.21;99376.67;112951;1249;22339;-47
2023/08/28 09:48:08;;;;;;;9.40;8.40;;;;;;;32.89;48.20;99375.50;112895;1249;22389;-53
2023/08/28 09:50:37;;;;;;;15.50;9.30;;;;;;;32.94;48.16;99364.23;112955;1249;23152;-48
2023/08/28 09:53:15;;;;;;;13.20;8.80;;;;;;;33.02;47.75;99364.83;112962;1248;22371;-47
2023/08/28 09:55:45;;;;;;;13.40;8.00;;;;;;;33.06;47.52;99360.78;112985;1248;22419;-47
2023/08/28 09:58:12;;;;;;;8.90;8.00;;;;;;;33.06;47.15;99366.34;112072;1249;22492;-44
2023/08/28 10:00:40;;;;;;;11.50;8.20;;;;;;;33.08;47.23;99361.28;112251;1249;22569;-52
2023/08/28 10:03:11;;;;;;;12.00;8.00;;;;;;;33.13;47.15;99360.95;112077;1249;22317;-48
2023/08/28 10:05:40;;;;;;;11.80;7.90;;;;;;;33.17;47.13;99360.52;112924;1248;22452;-46
2023/08/28 10:08:08;;;;;;;12.70;8.20;;;;;;;33.22;47.23;99355.07;112872;1249;22384;-46
2023/08/28 10:10:36;;;;;;;10.00;8.60;;;;;;;33.32;47.02;99355.58;112956;1249;22389;-51
2023/08/28 10:13:07;;;;;;;22.50;8.20;;;;;;;33.38;46.43;99355.08;112934;1249;23315;-51
2023/08/28 10:15:38;;;;;;;15.70;9.40;;;;;;;33.42;46.51;99353.39;112893;1249;22378;-46
2023/08/28 10:18:08;;;;;;;10.30;8.20;;;;;;;33.50;46.76;99353.12;112712;1249;23554;-52
2023/08/28 10:20:35;;;;;;;18.90;8.80;;;;;;;33.66;46.08;99350.19;112991;1248;22177;-52
2023/08/28 10:23:03;;;;;;;12.20;8.30;;;;;;;33.85;45.56;99355.43;112951;1249;23095;-52
2023/08/28 10:25:30;;;;;;;13.60;8.10;;;;;;;34.06;44.64;99357.32;112699;1249;22404;-52
2023/08/28 10:27:58;;;;;;;9.90;8.10;;;;;;;34.27;44.18;99354.88;112781;1248;23167;-47
2023/08/28 10:30:26;;;;;;;10.20;8.00;;;;;;;34.55;43.80;99355.34;111906;1249;25451;-45
2023/08/28 10:32:54;;;;;;;11.50;8.00;;;;;;;34.82;43.04;99354.05;111145;1249;22635;-53
2023/08/28 10:35:21;;;;;;;11.20;7.50;;;;;;;35.05;42.03;99351.59;112794;1249;23322;-46
2023/08/28 10:37:50;;;;;;;11.00;7.90;;;;;;;35.27;41.54;99344.73;111848;1248;22505;-46
2023/08/28 10:40:18;;;;;;;13.70;7.40;;;;;;;35.64;40.80;99342.17;112228;1249;25286;-53
2023/08/28 10:42:45;;;;;;;11.30;7.50;;;;;;;36.06;39.29;99340.89;112077;1249;22424;-48
2023/08/28 10:45:11;;;;;;;12.40;7.20;;;;;;;36.35;38.00;99334.48;110723;1249;22521;-52
2023/08/28 10:47:39;;;;;;;11.10;7.30;;;;;;;36.49;37.20;99335.29;112372;1249;22496;-51
2023/08/28 10:50:06;;;;;;;21.60;7.80;;;;;;;36.63;36.44;99330.23;112186;1249;22443;-53
2023/08/28 10:52:33;;;;;;;9.90;7.00;;;;;;;36.89;35.92;99328.86;112583;1249;22622;-48
2023/08/28 10:55:05;;;;;;;8.00;6.40;;;;;;;37.27;35.65;99328.39;112828;1249;22460;-47
2023/08/28 10:57:32;;;;;;;;;;;;;;;37.69;34.95;99320.66;112491;1249;22469;-47
2023/08/28 11:00:00;;;;;;;10.60;6.40;;;;;;;38.03;34.47;99313.70;112534;1249;22260;-47
2023/08/28 11:03:07;;;;;;;14.30;6.90;;;;;;;38.38;33.72;99316.60;113006;1249;22367;-54
2023/08/28 11:05:39;;;;;;;6.70;5.90;;;;;;;38.56;32.15;99315.13;111574;1249;22434;-46
2023/08/28 11:08:07;;;;;;;8.60;6.10;;;;;;;38.43;32.29;99311.72;111233;1248;22459;-46
2023/08/28 11:10:36;;;;;;;16.90;7.50;;;;;;;38.30;32.47;99308.52;111234;1249;24171;-48
2023/08/28 11:13:08;;;;;;;10.60;6.00;;;;;;;38.25;32.70;99304.67;110131;1249;22514;-47
2023/08/28 11:15:39;;;;;;;9.60;5.50;;;;;;;38.16;32.99;99302.19;112258;1249;22414;-48
2023/08/28 11:18:19;;;;;;;13.20;7.00;;;;;;;38.01;33.30;99301.98;111335;1249;22491;-47
2023/08/28 11:20:48;;;;;;;10.60;7.10;;;;;;;37.78;33.19;99302.40;111148;1249;22744;-47
2023/08/28 11:23:42;;;;;;;13.70;7.10;;;;;;;37.39;34.04;99303.02;111049;1249;22514;-48
2023/08/28 11:26:15;;;;;;;12.40;7.00;;;;;;;37.02;34.57;99294.16;112553;1248;22462;-53
2023/08/28 11:28:43;;;;;;;14.00;6.80;;;;;;;36.61;34.56;99289.84;110491;1249;22546;-52
2023/08/28 11:31:10;;;;;;;12.40;6.80;;;;;;;36.26;34.34;99284.05;110456;1249;22646;-52
2023/08/28 11:33:39;;;;;;;12.30;5.90;;;;;;;35.97;34.61;99286.20;110538;1249;24300;-52
2023/08/28 11:36:14;;;;;;;8.00;5.40;;;;;;;35.88;34.63;99283.62;110124;1249;22512;-51
2023/08/28 11:38:42;;;;;;;15.20;6.40;;;;;;;35.91;34.96;99279.27;110779;1249;22594;-47
2023/08/28 11:41:10;;;;;;;8.90;6.00;;;;;;;35.89;34.92;99281.07;110369;1249;22506;-47
2023/08/28 11:43:38;;;;;;;13.00;6.00;;;;;;;35.82;34.66;99277.09;110689;1249;23212;-45
2023/08/28 11:46:05;;;;;;;11.10;5.80;;;;;;;35.69;34.26;99274.55;110759;1248;23309;-52
2023/08/28 11:48:37;;;;;;;9.30;5.80;;;;;;;35.58;35.46;99273.48;110380;1248;22540;-47
2023/08/28 11:51:05;;;;;;;15.20;6.40;;;;;;;35.55;35.11;99273.67;110587;1249;22508;-48
2023/08/28 11:53:34;;;;;;;10.50;5.90;;;;;;;35.51;35.26;99273.03;111960;1248;22492;-51
2023/08/28 11:56:03;;;;;;;9.00;5.70;;;;;;;35.49;34.85;99265.67;111637;1249;22443;-46
2023/08/28 11:58:34;;;;;;;12.90;6.40;;;;;;;35.43;34.36;99266.20;112578;1240;22514;-51
2023/08/28 12:01:05;;;;;;;11.50;6.30;;;;;;;35.40;35.08;99265.33;110495;1249;22893;-47
2023/08/28 12:03:32;;;;;;;10.40;6.60;;;;;;;35.40;36.47;99260.94;111130;1249;22523;-47
2023/08/28 12:06:01;;;;;;;13.40;6.90;;;;;;;35.43;36.63;99261.27;111162;1248;23187;-46
2023/08/28 12:08:28;;;;;;;17.30;7.10;;;;;;;35.43;36.93;99261.61;110727;1249;22717;-52
2023/08/28 12:10:59;;;;;;;15.20;6.90;;;;;;;35.35;36.89;99261.11;111966;1248;22442;-46
2023/08/28 12:13:26;;;;;;;12.60;7.30;;;;;;;35.23;37.30;99262.63;111715;1249;22514;-52
2023/08/28 12:16:20;;;;;;;13.90;7.00;;;;;;;35.10;37.61;99265.69;110699;1248;22576;-52
2023/08/28 12:18:48;;;;;;;8.00;6.90;;;;;;;34.98;38.16;99261.52;112357;1249;23219;-47
